sensor_id;sensor_type;location;lat;lon;timestamp;temperature;humidity
13944;DHT22;7044;53.286;8.534;2023-08-06T00:02:22;14.70;99.90
13944;DHT22;7044;53.286;8.534;2023-08-06T00:04:49;14.70;99.90
13944;DHT22;7044;53.286;8.534;2023-08-06T00:07:17;14.80;99.90
13944;DHT22;7044;53.286;8.534;2023-08-06T00:09:43;14.50;99.90
13944;DHT22;7044;53.286;8.534;2023-08-06T00:12:10;14.70;99.90
13944;DHT22;7044;53.286;8.534;2023-08-06T00:14:37;14.70;99.90
13944;DHT22;7044;53.286;8.534;2023-08-06T00:17:04;14.70;99.90
13944;DHT22;7044;53.286;8.534;2023-08-06T00:19:31;14.70;99.90
13944;DHT22;7044;53.286;8.534;2023-08-06T00:21:58;14.60;99.90
13944;DHT22;7044;53.286;8.534;2023-08-06T00:24:26;14.60;99.90
13944;DHT22;7044;53.286;8.534;2023-08-06T00:26:53;14.60;99.90
13944;DHT22;7044;53.286;8.534;2023-08-06T00:29:20;14.70;99.90
13944;DHT22;7044;53.286;8.534;2023-08-06T00:31:46;14.60;99.90
13944;DHT22;7044;53.286;8.534;2023-08-06T00:34:13;14.60;99.90
13944;DHT22;7044;53.286;8.534;2023-08-06T00:36:40;14.60;99.90
13944;DHT22;7044;53.286;8.534;2023-08-06T00:39:07;14.60;99.90
13944;DHT22;7044;53.286;8.534;2023-08-06T00:41:35;14.60;99.90
13944;DHT22;7044;53.286;8.534;2023-08-06T00:44:02;14.60;99.90
13944;DHT22;7044;53.286;8.534;2023-08-06T00:46:30;14.70;99.90
13944;DHT22;7044;53.286;8.534;2023-08-06T00:48:58;14.70;99.90
13944;DHT22;7044;53.286;8.534;2023-08-06T00:51:25;14.70;99.90
13944;DHT22;7044;53.286;8.534;2023-08-06T00:53:53;14.70;99.90
13944;DHT22;7044;53.286;8.534;2023-08-06T00:56:21;14.60;99.90
13944;DHT22;7044;53.286;8.534;2023-08-06T00:58:49;14.60;99.90
13944;DHT22;7044;53.286;8.534;2023-08-06T01:01:16;14.60;99.90
13944;DHT22;7044;53.286;8.534;2023-08-06T01:03:42;14.60;99.90
13944;DHT22;7044;53.286;8.534;2023-08-06T01:06:09;14.60;99.90
13944;DHT22;7044;53.286;8.534;2023-08-06T01:08:51;14.90;99.90
13944;DHT22;7044;53.286;8.534;2023-08-06T01:11:26;14.50;99.90
13944;DHT22;7044;53.286;8.534;2023-08-06T01:14:04;14.50;99.90
13944;DHT22;7044;53.286;8.534;2023-08-06T01:16:33;14.60;99.90
13944;DHT22;7044;53.286;8.534;2023-08-06T01:19:02;14.60;99.90
13944;DHT22;7044;53.286;8.534;2023-08-06T01:21:30;14.60;99.90
13944;DHT22;7044;53.286;8.534;2023-08-06T01:23:57;14.50;99.90
13944;DHT22;7044;53.286;8.534;2023-08-06T01:26:27;14.40;99.90
13944;DHT22;7044;53.286;8.534;2023-08-06T01:28:59;14.50;99.90
13944;DHT22;7044;53.286;8.534;2023-08-06T01:31:31;14.80;99.90
13944;DHT22;7044;53.286;8.534;2023-08-06T01:33:59;14.50;99.90
13944;DHT22;7044;53.286;8.534;2023-08-06T01:36:29;14.40;99.90
13944;DHT22;7044;53.286;8.534;2023-08-06T01:38:56;14.50;99.90
13944;DHT22;7044;53.286;8.534;2023-08-06T01:41:23;14.40;99.90
13944;DHT22;7044;53.286;8.534;2023-08-06T01:43:50;14.40;99.90
13944;DHT22;7044;53.286;8.534;2023-08-06T01:46:17;14.40;99.90
13944;DHT22;7044;53.286;8.534;2023-08-06T01:48:44;14.40;99.90
13944;DHT22;7044;53.286;8.534;2023-08-06T01:51:10;14.40;99.90
13944;DHT22;7044;53.286;8.534;2023-08-06T01:53:39;14.40;99.90
13944;DHT22;7044;53.286;8.534;2023-08-06T01:56:05;14.40;99.90
13944;DHT22;7044;53.286;8.534;2023-08-06T01:58:32;14.40;99.90
13944;DHT22;7044;53.286;8.534;2023-08-06T02:00:59;14.40;99.90
13944;DHT22;7044;53.286;8.534;2023-08-06T02:03:27;14.40;99.90
13944;DHT22;7044;53.286;8.534;2023-08-06T02:05:54;14.40;99.90
13944;DHT22;7044;53.286;8.534;2023-08-06T02:08:21;14.40;99.90
13944;DHT22;7044;53.286;8.534;2023-08-06T02:10:49;14.40;99.90
13944;DHT22;7044;53.286;8.534;2023-08-06T02:13:16;14.40;99.90
13944;DHT22;7044;53.286;8.534;2023-08-06T02:15:43;14.40;99.90
13944;DHT22;7044;53.286;8.534;2023-08-06T02:18:10;14.40;99.90
13944;DHT22;7044;53.286;8.534;2023-08-06T02:20:36;14.40;99.90
13944;DHT22;7044;53.286;8.534;2023-08-06T02:23:03;14.40;99.90
13944;DHT22;7044;53.286;8.534;2023-08-06T02:25:30;14.40;99.90
13944;DHT22;7044;53.286;8.534;2023-08-06T02:27:58;14.30;99.90
13944;DHT22;7044;53.286;8.534;2023-08-06T02:30:25;14.30;99.90
13944;DHT22;7044;53.286;8.534;2023-08-06T02:32:52;14.40;99.90
13944;DHT22;7044;53.286;8.534;2023-08-06T02:35:19;14.30;99.90
13944;DHT22;7044;53.286;8.534;2023-08-06T02:37:45;14.40;99.90
13944;DHT22;7044;53.286;8.534;2023-08-06T02:40:12;14.40;99.90
13944;DHT22;7044;53.286;8.534;2023-08-06T02:42:39;14.30;99.90
13944;DHT22;7044;53.286;8.534;2023-08-06T02:45:08;14.40;99.90
13944;DHT22;7044;53.286;8.534;2023-08-06T02:47:35;14.30;99.90
13944;DHT22;7044;53.286;8.534;2023-08-06T02:50:02;14.30;99.90
13944;DHT22;7044;53.286;8.534;2023-08-06T02:52:28;14.30;99.90
13944;DHT22;7044;53.286;8.534;2023-08-06T02:54:55;14.20;99.90
13944;DHT22;7044;53.286;8.534;2023-08-06T02:57:25;14.30;99.90
13944;DHT22;7044;53.286;8.534;2023-08-06T02:59:52;14.40;99.90
13944;DHT22;7044;53.286;8.534;2023-08-06T03:02:20;14.40;99.90
13944;DHT22;7044;53.286;8.534;2023-08-06T03:04:47;14.30;99.90
13944;DHT22;7044;53.286;8.534;2023-08-06T03:07:13;14.20;99.90
13944;DHT22;7044;53.286;8.534;2023-08-06T03:09:40;14.40;99.90
13944;DHT22;7044;53.286;8.534;2023-08-06T03:12:07;14.40;99.90
13944;DHT22;7044;53.286;8.534;2023-08-06T03:14:34;14.50;99.90
13944;DHT22;7044;53.286;8.534;2023-08-06T03:17:01;14.50;99.90
13944;DHT22;7044;53.286;8.534;2023-08-06T03:19:29;14.50;99.90
13944;DHT22;7044;53.286;8.534;2023-08-06T03:21:56;14.50;99.90
13944;DHT22;7044;53.286;8.534;2023-08-06T03:24:23;14.50;99.90
13944;DHT22;7044;53.286;8.534;2023-08-06T03:26:50;14.50;99.90
13944;DHT22;7044;53.286;8.534;2023-08-06T03:29:16;14.40;99.90
13944;DHT22;7044;53.286;8.534;2023-08-06T03:31:43;14.40;99.90
13944;DHT22;7044;53.286;8.534;2023-08-06T03:34:10;14.50;99.90
13944;DHT22;7044;53.286;8.534;2023-08-06T03:36:38;14.50;99.90
13944;DHT22;7044;53.286;8.534;2023-08-06T03:39:05;14.50;99.90
13944;DHT22;7044;53.286;8.534;2023-08-06T03:41:31;14.40;99.90
13944;DHT22;7044;53.286;8.534;2023-08-06T03:43:58;14.50;99.90
13944;DHT22;7044;53.286;8.534;2023-08-06T03:46:26;14.30;99.90
13944;DHT22;7044;53.286;8.534;2023-08-06T03:48:53;14.40;99.90
13944;DHT22;7044;53.286;8.534;2023-08-06T03:51:19;14.30;99.90
13944;DHT22;7044;53.286;8.534;2023-08-06T03:53:48;14.40;99.90
13944;DHT22;7044;53.286;8.534;2023-08-06T03:56:14;14.30;99.90
13944;DHT22;7044;53.286;8.534;2023-08-06T03:58:41;14.40;99.90
13944;DHT22;7044;53.286;8.534;2023-08-06T04:01:08;14.40;99.90
13944;DHT22;7044;53.286;8.534;2023-08-06T04:03:35;14.40;99.90
13944;DHT22;7044;53.286;8.534;2023-08-06T04:06:02;14.40;99.90
13944;DHT22;7044;53.286;8.534;2023-08-06T04:08:29;14.40;99.90
13944;DHT22;7044;53.286;8.534;2023-08-06T04:10:58;14.40;99.90
13944;DHT22;7044;53.286;8.534;2023-08-06T04:13:25;14.80;99.90
13944;DHT22;7044;53.286;8.534;2023-08-06T04:15:52;14.40;99.90
13944;DHT22;7044;53.286;8.534;2023-08-06T04:18:19;14.40;99.90
13944;DHT22;7044;53.286;8.534;2023-08-06T04:20:46;14.50;99.90
13944;DHT22;7044;53.286;8.534;2023-08-06T04:23:15;14.50;99.90
13944;DHT22;7044;53.286;8.534;2023-08-06T04:25:41;14.50;99.90
13944;DHT22;7044;53.286;8.534;2023-08-06T04:28:10;14.50;99.90
13944;DHT22;7044;53.286;8.534;2023-08-06T04:30:37;14.40;99.90
13944;DHT22;7044;53.286;8.534;2023-08-06T04:33:04;14.40;99.90
13944;DHT22;7044;53.286;8.534;2023-08-06T04:35:31;14.50;99.90
13944;DHT22;7044;53.286;8.534;2023-08-06T04:37:58;14.50;99.90
13944;DHT22;7044;53.286;8.534;2023-08-06T04:40:24;14.90;99.90
13944;DHT22;7044;53.286;8.534;2023-08-06T04:42:52;14.50;99.90
13944;DHT22;7044;53.286;8.534;2023-08-06T04:45:20;14.50;99.90
13944;DHT22;7044;53.286;8.534;2023-08-06T04:47:46;14.50;99.90
13944;DHT22;7044;53.286;8.534;2023-08-06T04:50:13;14.50;99.90
13944;DHT22;7044;53.286;8.534;2023-08-06T04:52:40;14.60;99.90
13944;DHT22;7044;53.286;8.534;2023-08-06T04:55:07;14.60;99.90
13944;DHT22;7044;53.286;8.534;2023-08-06T04:57:34;14.60;99.90
13944;DHT22;7044;53.286;8.534;2023-08-06T05:00:01;14.60;99.90
13944;DHT22;7044;53.286;8.534;2023-08-06T05:02:29;14.60;99.90
13944;DHT22;7044;53.286;8.534;2023-08-06T05:04:57;14.70;99.90
13944;DHT22;7044;53.286;8.534;2023-08-06T05:07:24;14.60;99.90
13944;DHT22;7044;53.286;8.534;2023-08-06T05:09:51;14.60;99.90
13944;DHT22;7044;53.286;8.534;2023-08-06T05:12:18;14.60;99.90
13944;DHT22;7044;53.286;8.534;2023-08-06T05:14:44;14.60;99.90
13944;DHT22;7044;53.286;8.534;2023-08-06T05:17:11;14.60;99.90
13944;DHT22;7044;53.286;8.534;2023-08-06T05:19:39;14.70;99.90
13944;DHT22;7044;53.286;8.534;2023-08-06T05:22:06;14.70;99.90
13944;DHT22;7044;53.286;8.534;2023-08-06T05:24:33;14.60;99.90
13944;DHT22;7044;53.286;8.534;2023-08-06T05:26:59;14.70;99.90
13944;DHT22;7044;53.286;8.534;2023-08-06T05:29:26;14.80;99.90
13944;DHT22;7044;53.286;8.534;2023-08-06T05:31:53;14.70;99.90
13944;DHT22;7044;53.286;8.534;2023-08-06T05:34:20;14.60;99.90
13944;DHT22;7044;53.286;8.534;2023-08-06T05:36:48;14.70;99.90
13944;DHT22;7044;53.286;8.534;2023-08-06T05:39:15;14.70;99.90
13944;DHT22;7044;53.286;8.534;2023-08-06T05:41:42;14.80;99.90
13944;DHT22;7044;53.286;8.534;2023-08-06T05:44:08;14.70;99.90
13944;DHT22;7044;53.286;8.534;2023-08-06T05:46:35;14.70;99.90
13944;DHT22;7044;53.286;8.534;2023-08-06T05:49:02;15.00;99.90
13944;DHT22;7044;53.286;8.534;2023-08-06T05:51:29;14.70;99.90
13944;DHT22;7044;53.286;8.534;2023-08-06T05:53:57;14.80;99.90
13944;DHT22;7044;53.286;8.534;2023-08-06T05:56:24;14.80;99.90
13944;DHT22;7044;53.286;8.534;2023-08-06T05:58:50;14.80;99.90
13944;DHT22;7044;53.286;8.534;2023-08-06T06:01:18;14.90;99.90
13944;DHT22;7044;53.286;8.534;2023-08-06T06:03:45;14.90;99.90
13944;DHT22;7044;53.286;8.534;2023-08-06T06:06:12;14.90;99.90
13944;DHT22;7044;53.286;8.534;2023-08-06T06:08:38;14.90;99.90
13944;DHT22;7044;53.286;8.534;2023-08-06T06:11:07;14.80;99.90
13944;DHT22;7044;53.286;8.534;2023-08-06T06:13:33;15.00;99.90
13944;DHT22;7044;53.286;8.534;2023-08-06T06:16:00;15.00;99.90
13944;DHT22;7044;53.286;8.534;2023-08-06T06:18:27;15.00;99.90
13944;DHT22;7044;53.286;8.534;2023-08-06T06:20:54;15.00;99.90
13944;DHT22;7044;53.286;8.534;2023-08-06T06:23:20;15.10;99.90
13944;DHT22;7044;53.286;8.534;2023-08-06T06:25:48;15.10;99.90
13944;DHT22;7044;53.286;8.534;2023-08-06T06:28:18;15.00;99.90
13944;DHT22;7044;53.286;8.534;2023-08-06T06:30:45;15.20;99.90
13944;DHT22;7044;53.286;8.534;2023-08-06T06:33:12;15.30;99.90
13944;DHT22;7044;53.286;8.534;2023-08-06T06:35:38;15.30;99.90
13944;DHT22;7044;53.286;8.534;2023-08-06T06:38:05;15.40;99.90
13944;DHT22;7044;53.286;8.534;2023-08-06T06:40:32;15.30;99.90
13944;DHT22;7044;53.286;8.534;2023-08-06T06:42:59;15.40;99.90
13944;DHT22;7044;53.286;8.534;2023-08-06T06:45:27;15.50;99.90
13944;DHT22;7044;53.286;8.534;2023-08-06T06:47:54;15.40;99.90
13944;DHT22;7044;53.286;8.534;2023-08-06T06:50:21;15.40;99.90
13944;DHT22;7044;53.286;8.534;2023-08-06T06:52:48;15.40;99.90
13944;DHT22;7044;53.286;8.534;2023-08-06T06:55:14;15.50;99.90
13944;DHT22;7044;53.286;8.534;2023-08-06T06:57:41;15.50;99.90
13944;DHT22;7044;53.286;8.534;2023-08-06T07:00:09;15.50;99.90
13944;DHT22;7044;53.286;8.534;2023-08-06T07:02:37;15.60;99.90
13944;DHT22;7044;53.286;8.534;2023-08-06T07:05:05;15.60;99.90
13944;DHT22;7044;53.286;8.534;2023-08-06T07:07:32;15.50;99.90
13944;DHT22;7044;53.286;8.534;2023-08-06T07:09:59;15.50;99.90
13944;DHT22;7044;53.286;8.534;2023-08-06T07:12:26;15.60;99.90
13944;DHT22;7044;53.286;8.534;2023-08-06T07:14:53;15.70;99.90
13944;DHT22;7044;53.286;8.534;2023-08-06T07:17:20;15.80;99.90
13944;DHT22;7044;53.286;8.534;2023-08-06T07:19:48;15.80;99.90
13944;DHT22;7044;53.286;8.534;2023-08-06T07:22:15;15.80;99.90
13944;DHT22;7044;53.286;8.534;2023-08-06T07:24:41;15.80;99.90
13944;DHT22;7044;53.286;8.534;2023-08-06T07:27:08;15.80;99.90
13944;DHT22;7044;53.286;8.534;2023-08-06T07:29:35;15.80;99.90
13944;DHT22;7044;53.286;8.534;2023-08-06T07:32:02;15.70;99.90
13944;DHT22;7044;53.286;8.534;2023-08-06T07:34:28;15.80;99.90
13944;DHT22;7044;53.286;8.534;2023-08-06T07:36:57;15.80;99.90
13944;DHT22;7044;53.286;8.534;2023-08-06T07:39:23;15.80;99.90
13944;DHT22;7044;53.286;8.534;2023-08-06T07:41:50;15.90;99.90
13944;DHT22;7044;53.286;8.534;2023-08-06T07:44:17;15.90;99.90
13944;DHT22;7044;53.286;8.534;2023-08-06T07:46:44;15.90;99.90
13944;DHT22;7044;53.286;8.534;2023-08-06T07:49:10;15.90;99.90
13944;DHT22;7044;53.286;8.534;2023-08-06T07:51:37;15.90;99.90
13944;DHT22;7044;53.286;8.534;2023-08-06T07:54:06;16.00;99.90
13944;DHT22;7044;53.286;8.534;2023-08-06T07:56:32;16.10;99.90
13944;DHT22;7044;53.286;8.534;2023-08-06T08:01:26;16.10;99.90
13944;DHT22;7044;53.286;8.534;2023-08-06T08:03:53;16.30;99.90
13944;DHT22;7044;53.286;8.534;2023-08-06T08:06:20;16.20;99.90
13944;DHT22;7044;53.286;8.534;2023-08-06T08:08:47;16.20;99.90
13944;DHT22;7044;53.286;8.534;2023-08-06T08:11:15;16.30;99.90
13944;DHT22;7044;53.286;8.534;2023-08-06T08:13:42;16.40;99.90
13944;DHT22;7044;53.286;8.534;2023-08-06T08:16:09;16.40;99.90
13944;DHT22;7044;53.286;8.534;2023-08-06T08:18:36;17.20;99.90
13944;DHT22;7044;53.286;8.534;2023-08-06T08:21:02;16.40;99.90
13944;DHT22;7044;53.286;8.534;2023-08-06T08:23:29;16.30;99.90
13944;DHT22;7044;53.286;8.534;2023-08-06T08:25:56;15.90;99.90
13944;DHT22;7044;53.286;8.534;2023-08-06T08:28:25;16.30;99.90
13944;DHT22;7044;53.286;8.534;2023-08-06T08:30:51;16.40;99.90
13944;DHT22;7044;53.286;8.534;2023-08-06T08:33:18;16.50;99.90
13944;DHT22;7044;53.286;8.534;2023-08-06T08:35:46;16.60;99.90
13944;DHT22;7044;53.286;8.534;2023-08-06T08:38:13;16.50;99.90
13944;DHT22;7044;53.286;8.534;2023-08-06T08:40:45;16.50;99.90
13944;DHT22;7044;53.286;8.534;2023-08-06T08:43:12;16.60;99.90
13944;DHT22;7044;53.286;8.534;2023-08-06T08:45:42;16.60;99.90
13944;DHT22;7044;53.286;8.534;2023-08-06T08:48:12;16.60;99.90
13944;DHT22;7044;53.286;8.534;2023-08-06T08:50:39;16.50;99.90
13944;DHT22;7044;53.286;8.534;2023-08-06T08:53:06;16.50;99.90
13944;DHT22;7044;53.286;8.534;2023-08-06T08:55:34;16.50;99.90
13944;DHT22;7044;53.286;8.534;2023-08-06T08:58:02;16.50;99.90
13944;DHT22;7044;53.286;8.534;2023-08-06T09:00:29;16.70;99.90
13944;DHT22;7044;53.286;8.534;2023-08-06T09:02:59;16.60;99.90
13944;DHT22;7044;53.286;8.534;2023-08-06T09:05:29;16.90;99.90
13944;DHT22;7044;53.286;8.534;2023-08-06T09:08:02;16.90;99.90
13944;DHT22;7044;53.286;8.534;2023-08-06T09:10:29;17.10;99.90
13944;DHT22;7044;53.286;8.534;2023-08-06T09:12:56;17.00;99.90
13944;DHT22;7044;53.286;8.534;2023-08-06T09:15:24;17.00;99.90
13944;DHT22;7044;53.286;8.534;2023-08-06T09:17:52;17.00;99.90
13944;DHT22;7044;53.286;8.534;2023-08-06T09:20:20;17.00;99.90
13944;DHT22;7044;53.286;8.534;2023-08-06T09:22:47;17.10;99.90
13944;DHT22;7044;53.286;8.534;2023-08-06T09:25:21;17.10;99.90
13944;DHT22;7044;53.286;8.534;2023-08-06T09:27:50;17.20;99.90
13944;DHT22;7044;53.286;8.534;2023-08-06T09:30:29;17.20;99.90
13944;DHT22;7044;53.286;8.534;2023-08-06T09:32:56;17.40;99.90
13944;DHT22;7044;53.286;8.534;2023-08-06T09:35:25;17.50;99.90
13944;DHT22;7044;53.286;8.534;2023-08-06T09:37:54;17.80;99.90
13944;DHT22;7044;53.286;8.534;2023-08-06T09:40:28;17.80;99.90
13944;DHT22;7044;53.286;8.534;2023-08-06T09:42:56;18.00;99.90
13944;DHT22;7044;53.286;8.534;2023-08-06T09:45:24;17.80;99.90
13944;DHT22;7044;53.286;8.534;2023-08-06T09:47:56;17.80;99.90
13944;DHT22;7044;53.286;8.534;2023-08-06T09:50:28;18.10;99.90
13944;DHT22;7044;53.286;8.534;2023-08-06T09:52:56;18.10;99.90
13944;DHT22;7044;53.286;8.534;2023-08-06T09:55:24;18.10;99.90
13944;DHT22;7044;53.286;8.534;2023-08-06T09:57:52;18.20;99.90
13944;DHT22;7044;53.286;8.534;2023-08-06T10:00:19;18.20;99.90
13944;DHT22;7044;53.286;8.534;2023-08-06T10:02:47;17.90;99.90
13944;DHT22;7044;53.286;8.534;2023-08-06T10:05:15;18.30;99.90
13944;DHT22;7044;53.286;8.534;2023-08-06T10:07:44;18.40;99.90
13944;DHT22;7044;53.286;8.534;2023-08-06T10:10:11;18.40;99.90
13944;DHT22;7044;53.286;8.534;2023-08-06T10:12:40;18.40;99.90
13944;DHT22;7044;53.286;8.534;2023-08-06T10:15:12;18.40;99.90
13944;DHT22;7044;53.286;8.534;2023-08-06T10:17:39;18.40;99.90
13944;DHT22;7044;53.286;8.534;2023-08-06T10:20:08;18.50;99.90
13944;DHT22;7044;53.286;8.534;2023-08-06T10:22:35;18.50;99.90
13944;DHT22;7044;53.286;8.534;2023-08-06T10:25:04;18.50;99.90
13944;DHT22;7044;53.286;8.534;2023-08-06T10:27:36;18.60;99.90
13944;DHT22;7044;53.286;8.534;2023-08-06T10:30:24;18.70;99.90
13944;DHT22;7044;53.286;8.534;2023-08-06T10:32:52;18.60;99.90
13944;DHT22;7044;53.286;8.534;2023-08-06T10:35:30;18.70;99.90
13944;DHT22;7044;53.286;8.534;2023-08-06T10:38:03;18.60;99.90
13944;DHT22;7044;53.286;8.534;2023-08-06T10:40:32;18.70;99.90
13944;DHT22;7044;53.286;8.534;2023-08-06T10:43:00;18.80;99.90
13944;DHT22;7044;53.286;8.534;2023-08-06T10:45:27;18.60;99.90
13944;DHT22;7044;53.286;8.534;2023-08-06T10:47:56;18.60;99.90
13944;DHT22;7044;53.286;8.534;2023-08-06T10:50:24;18.50;99.90
13944;DHT22;7044;53.286;8.534;2023-08-06T10:52:51;18.50;99.90
13944;DHT22;7044;53.286;8.534;2023-08-06T10:55:25;18.50;99.90
13944;DHT22;7044;53.286;8.534;2023-08-06T10:57:54;18.50;99.90
13944;DHT22;7044;53.286;8.534;2023-08-06T11:00:22;18.30;99.90
13944;DHT22;7044;53.286;8.534;2023-08-06T11:02:50;18.40;99.90
13944;DHT22;7044;53.286;8.534;2023-08-06T11:05:17;18.40;99.90
13944;DHT22;7044;53.286;8.534;2023-08-06T11:07:43;18.50;99.90
13944;DHT22;7044;53.286;8.534;2023-08-06T11:10:11;18.50;99.90
13944;DHT22;7044;53.286;8.534;2023-08-06T11:12:39;18.70;99.90
13944;DHT22;7044;53.286;8.534;2023-08-06T11:15:08;18.50;99.90
13944;DHT22;7044;53.286;8.534;2023-08-06T11:17:36;18.70;99.90
13944;DHT22;7044;53.286;8.534;2023-08-06T11:20:05;18.80;99.90
13944;DHT22;7044;53.286;8.534;2023-08-06T11:22:32;18.90;99.90
13944;DHT22;7044;53.286;8.534;2023-08-06T11:24:58;18.90;99.90
13944;DHT22;7044;53.286;8.534;2023-08-06T11:27:27;19.00;99.90
13944;DHT22;7044;53.286;8.534;2023-08-06T11:29:54;19.10;99.90
13944;DHT22;7044;53.286;8.534;2023-08-06T11:32:23;19.00;99.90
13944;DHT22;7044;53.286;8.534;2023-08-06T11:34:50;19.10;99.90
13944;DHT22;7044;53.286;8.534;2023-08-06T11:37:21;19.10;99.90
13944;DHT22;7044;53.286;8.534;2023-08-06T11:39:48;19.20;99.90
13944;DHT22;7044;53.286;8.534;2023-08-06T11:42:15;19.30;99.90
13944;DHT22;7044;53.286;8.534;2023-08-06T11:44:42;19.20;99.90
13944;DHT22;7044;53.286;8.534;2023-08-06T11:47:13;19.20;99.90
13944;DHT22;7044;53.286;8.534;2023-08-06T11:49:45;19.30;99.90
13944;DHT22;7044;53.286;8.534;2023-08-06T11:52:17;19.30;99.90
13944;DHT22;7044;53.286;8.534;2023-08-06T11:54:46;19.30;99.90
13944;DHT22;7044;53.286;8.534;2023-08-06T11:57:13;19.30;99.90
13944;DHT22;7044;53.286;8.534;2023-08-06T11:59:40;19.60;99.90
13944;DHT22;7044;53.286;8.534;2023-08-06T12:02:09;19.60;99.90
13944;DHT22;7044;53.286;8.534;2023-08-06T12:05:00;19.40;99.90
13944;DHT22;7044;53.286;8.534;2023-08-06T12:07:29;19.40;99.90
13944;DHT22;7044;53.286;8.534;2023-08-06T12:09:56;19.30;99.90
13944;DHT22;7044;53.286;8.534;2023-08-06T12:12:23;19.30;99.90
13944;DHT22;7044;53.286;8.534;2023-08-06T12:14:50;20.10;99.90
13944;DHT22;7044;53.286;8.534;2023-08-06T12:17:17;19.60;99.90
13944;DHT22;7044;53.286;8.534;2023-08-06T12:19:44;19.60;99.90
13944;DHT22;7044;53.286;8.534;2023-08-06T12:22:13;19.50;99.90
13944;DHT22;7044;53.286;8.534;2023-08-06T12:24:41;19.60;99.90
13944;DHT22;7044;53.286;8.534;2023-08-06T12:27:08;19.60;99.90
13944;DHT22;7044;53.286;8.534;2023-08-06T12:29:35;19.60;99.90
13944;DHT22;7044;53.286;8.534;2023-08-06T12:32:02;19.80;99.90
13944;DHT22;7044;53.286;8.534;2023-08-06T12:34:29;19.80;99.90
13944;DHT22;7044;53.286;8.534;2023-08-06T12:36:56;19.90;99.90
13944;DHT22;7044;53.286;8.534;2023-08-06T12:39:24;19.80;99.90
13944;DHT22;7044;53.286;8.534;2023-08-06T12:41:54;19.80;99.90
13944;DHT22;7044;53.286;8.534;2023-08-06T12:44:21;19.80;99.90
13944;DHT22;7044;53.286;8.534;2023-08-06T12:46:48;19.80;99.90
13944;DHT22;7044;53.286;8.534;2023-08-06T12:49:14;19.80;99.90
13944;DHT22;7044;53.286;8.534;2023-08-06T12:51:41;19.90;99.90
13944;DHT22;7044;53.286;8.534;2023-08-06T12:54:08;20.20;99.90
13944;DHT22;7044;53.286;8.534;2023-08-06T12:56:36;20.20;99.90
13944;DHT22;7044;53.286;8.534;2023-08-06T12:59:03;20.10;99.90
13944;DHT22;7044;53.286;8.534;2023-08-06T13:01:30;20.10;99.90
13944;DHT22;7044;53.286;8.534;2023-08-06T13:03:59;20.10;99.90
13944;DHT22;7044;53.286;8.534;2023-08-06T13:06:26;20.10;99.90
13944;DHT22;7044;53.286;8.534;2023-08-06T13:08:53;20.20;99.90
13944;DHT22;7044;53.286;8.534;2023-08-06T13:11:20;20.00;99.90
13944;DHT22;7044;53.286;8.534;2023-08-06T13:13:48;19.90;99.90
13944;DHT22;7044;53.286;8.534;2023-08-06T13:16:14;19.90;99.90
13944;DHT22;7044;53.286;8.534;2023-08-06T13:18:41;20.00;99.90
13944;DHT22;7044;53.286;8.534;2023-08-06T13:21:08;20.20;99.90
13944;DHT22;7044;53.286;8.534;2023-08-06T13:23:35;20.20;99.90
13944;DHT22;7044;53.286;8.534;2023-08-06T13:26:02;20.10;99.90
13944;DHT22;7044;53.286;8.534;2023-08-06T13:28:28;20.00;99.90
13944;DHT22;7044;53.286;8.534;2023-08-06T13:30:57;20.10;99.90
13944;DHT22;7044;53.286;8.534;2023-08-06T13:33:24;20.10;99.90
13944;DHT22;7044;53.286;8.534;2023-08-06T13:35:52;20.10;99.90
13944;DHT22;7044;53.286;8.534;2023-08-06T13:38:19;20.00;99.90
13944;DHT22;7044;53.286;8.534;2023-08-06T13:40:45;20.00;99.90
13944;DHT22;7044;53.286;8.534;2023-08-06T13:43:12;19.80;99.90
13944;DHT22;7044;53.286;8.534;2023-08-06T13:45:41;19.80;99.90
13944;DHT22;7044;53.286;8.534;2023-08-06T13:48:09;19.80;99.90
13944;DHT22;7044;53.286;8.534;2023-08-06T13:50:36;19.90;99.90
13944;DHT22;7044;53.286;8.534;2023-08-06T13:53:03;19.90;99.90
13944;DHT22;7044;53.286;8.534;2023-08-06T13:55:30;20.00;99.90
13944;DHT22;7044;53.286;8.534;2023-08-06T13:57:57;19.20;99.90
13944;DHT22;7044;53.286;8.534;2023-08-06T14:00:23;19.90;99.90
13944;DHT22;7044;53.286;8.534;2023-08-06T14:02:50;19.90;99.90
13944;DHT22;7044;53.286;8.534;2023-08-06T14:05:19;20.00;99.90
13944;DHT22;7044;53.286;8.534;2023-08-06T14:10:12;19.90;99.90
13944;DHT22;7044;53.286;8.534;2023-08-06T14:12:40;20.00;99.90
13944;DHT22;7044;53.286;8.534;2023-08-06T14:15:08;20.00;99.90
13944;DHT22;7044;53.286;8.534;2023-08-06T14:17:34;20.00;99.90
13944;DHT22;7044;53.286;8.534;2023-08-06T14:20:01;20.00;99.90
13944;DHT22;7044;53.286;8.534;2023-08-06T14:22:31;20.00;99.90
13944;DHT22;7044;53.286;8.534;2023-08-06T14:24:58;19.90;99.90
13944;DHT22;7044;53.286;8.534;2023-08-06T14:27:25;19.90;99.90
13944;DHT22;7044;53.286;8.534;2023-08-06T14:29:52;20.10;99.90
13944;DHT22;7044;53.286;8.534;2023-08-06T14:32:18;20.10;99.90
13944;DHT22;7044;53.286;8.534;2023-08-06T14:34:45;19.90;99.90
13944;DHT22;7044;53.286;8.534;2023-08-06T14:37:12;20.00;99.90
13944;DHT22;7044;53.286;8.534;2023-08-06T14:39:40;20.00;99.90
13944;DHT22;7044;53.286;8.534;2023-08-06T14:42:07;20.00;99.90
13944;DHT22;7044;53.286;8.534;2023-08-06T14:44:34;19.90;99.90
13944;DHT22;7044;53.286;8.534;2023-08-06T14:47:01;19.90;99.90
13944;DHT22;7044;53.286;8.534;2023-08-06T14:49:28;20.00;99.90
13944;DHT22;7044;53.286;8.534;2023-08-06T14:51:55;20.10;99.90
13944;DHT22;7044;53.286;8.534;2023-08-06T14:54:24;20.20;99.90
13944;DHT22;7044;53.286;8.534;2023-08-06T14:56:53;20.10;99.90
13944;DHT22;7044;53.286;8.534;2023-08-06T14:59:19;20.00;99.90
13944;DHT22;7044;53.286;8.534;2023-08-06T15:01:46;19.90;99.90
13944;DHT22;7044;53.286;8.534;2023-08-06T15:04:13;19.90;99.90
13944;DHT22;7044;53.286;8.534;2023-08-06T15:06:40;19.80;99.90
13944;DHT22;7044;53.286;8.534;2023-08-06T15:09:07;19.90;99.90
13944;DHT22;7044;53.286;8.534;2023-08-06T15:11:34;20.10;99.90
13944;DHT22;7044;53.286;8.534;2023-08-06T15:14:02;19.90;99.90
13944;DHT22;7044;53.286;8.534;2023-08-06T15:16:30;19.90;99.90
13944;DHT22;7044;53.286;8.534;2023-08-06T15:18:59;19.80;99.90
13944;DHT22;7044;53.286;8.534;2023-08-06T15:21:26;19.80;99.90
13944;DHT22;7044;53.286;8.534;2023-08-06T15:23:53;19.90;99.90
13944;DHT22;7044;53.286;8.534;2023-08-06T15:26:20;19.90;99.90
13944;DHT22;7044;53.286;8.534;2023-08-06T15:28:47;19.90;99.90
13944;DHT22;7044;53.286;8.534;2023-08-06T15:31:15;20.00;99.90
13944;DHT22;7044;53.286;8.534;2023-08-06T15:33:46;19.80;99.90
13944;DHT22;7044;53.286;8.534;2023-08-06T15:36:13;19.80;99.90
13944;DHT22;7044;53.286;8.534;2023-08-06T15:38:39;19.80;99.90
13944;DHT22;7044;53.286;8.534;2023-08-06T15:41:06;19.80;99.90
13944;DHT22;7044;53.286;8.534;2023-08-06T15:43:34;18.70;99.90
13944;DHT22;7044;53.286;8.534;2023-08-06T15:46:02;19.80;99.90
13944;DHT22;7044;53.286;8.534;2023-08-06T15:48:30;19.80;99.90
13944;DHT22;7044;53.286;8.534;2023-08-06T15:50:57;19.90;99.90
13944;DHT22;7044;53.286;8.534;2023-08-06T15:53:24;19.90;99.90